sensor_id;sensor_type;location;lat;lon;timestamp;P1;P4;P2;P0;N10;N4;N25;N1;N05;TS
79466;SPS30;68933;49.726;9.226;2023-09-19T00:01:51;1.2;;1.2;1.1;;;;;;
79466;SPS30;68933;49.726;9.226;2023-09-19T00:04:03;0.9;;0.9;0.8;;;;;;
79466;SPS30;68933;49.726;9.226;2023-09-19T00:06:16;0.9;;0.9;0.8;;;;;;
79466;SPS30;68933;49.726;9.226;2023-09-19T00:08:29;1.1;;1.1;1;;;;;;
79466;SPS30;68933;49.726;9.226;2023-09-19T00:10:43;1.1;;1.1;1;;;;;;
79466;SPS30;68933;49.726;9.226;2023-09-19T00:12:55;1.4;;1.4;1.3;;;;;;
79466;SPS30;68933;49.726;9.226;2023-09-19T00:15:09;1.4;;1.4;1.3;;;;;;
79466;SPS30;68933;49.726;9.226;2023-09-19T00:17:21;1.4;;1.4;1.3;;;;;;
79466;SPS30;68933;49.726;9.226;2023-09-19T00:19:34;1.2;;1.2;1.1;;;;;;
79466;SPS30;68933;49.726;9.226;2023-09-19T00:21:47;1.2;;1.2;1.1;;;;;;
79466;SPS30;68933;49.726;9.226;2023-09-19T00:24:00;0.9;;0.9;0.8;;;;;;
79466;SPS30;68933;49.726;9.226;2023-09-19T00:26:13;0.9;;0.9;0.8;;;;;;
79466;SPS30;68933;49.726;9.226;2023-09-19T00:28:26;0.9;;0.9;0.8;;;;;;
79466;SPS30;68933;49.726;9.226;2023-09-19T00:30:42;1.2;;1.1;1.1;;;;;;
79466;SPS30;68933;49.726;9.226;2023-09-19T00:32:52;1.2;;1.1;1.1;;;;;;
79466;SPS30;68933;49.726;9.226;2023-09-19T00:35:05;0.9;;0.9;0.9;;;;;;
79466;SPS30;68933;49.726;9.226;2023-09-19T00:37:18;0.9;;0.9;0.9;;;;;;
79466;SPS30;68933;49.726;9.226;2023-09-19T00:39:31;0.8;;0.8;0.7;;;;;;
79466;SPS30;68933;49.726;9.226;2023-09-19T00:41:44;0.8;;0.8;0.7;;;;;;
79466;SPS30;68933;49.726;9.226;2023-09-19T00:43:57;0.8;;0.8;0.7;;;;;;
79466;SPS30;68933;49.726;9.226;2023-09-19T00:46:10;1;;1;0.9;;;;;;
79466;SPS30;68933;49.726;9.226;2023-09-19T00:48:23;1;;1;0.9;;;;;;
79466;SPS30;68933;49.726;9.226;2023-09-19T00:50:36;1.2;;1.2;1.1;;;;;;
79466;SPS30;68933;49.726;9.226;2023-09-19T00:52:50;1.2;;1.2;1.1;;;;;;
79466;SPS30;68933;49.726;9.226;2023-09-19T00:55:02;1;;1;1;;;;;;
79466;SPS30;68933;49.726;9.226;2023-09-19T00:57:15;1;;1;1;;;;;;
79466;SPS30;68933;49.726;9.226;2023-09-19T00:59:28;1;;1;1;;;;;;
79466;SPS30;68933;49.726;9.226;2023-09-19T01:01:41;1.3;;1.3;1.2;;;;;;
79466;SPS30;68933;49.726;9.226;2023-09-19T01:03:54;1.3;;1.3;1.2;;;;;;
79466;SPS30;68933;49.726;9.226;2023-09-19T01:06:07;1.5;;1.5;1.4;;;;;;
79466;SPS30;68933;49.726;9.226;2023-09-19T01:08:20;1.5;;1.5;1.4;;;;;;
79466;SPS30;68933;49.726;9.226;2023-09-19T01:10:33;1.4;;1.4;1.3;;;;;;
79466;SPS30;68933;49.726;9.226;2023-09-19T01:12:48;1.4;;1.4;1.3;;;;;;
79466;SPS30;68933;49.726;9.226;2023-09-19T01:15:01;1.4;;1.4;1.3;;;;;;
79466;SPS30;68933;49.726;9.226;2023-09-19T01:17:14;1.6;;1.6;1.6;;;;;;
79466;SPS30;68933;49.726;9.226;2023-09-19T01:19:32;1.6;;1.6;1.6;;;;;;
79466;SPS30;68933;49.726;9.226;2023-09-19T01:21:41;1.4;;1.4;1.3;;;;;;
79466;SPS30;68933;49.726;9.226;2023-09-19T01:23:59;1.4;;1.4;1.3;;;;;;
79466;SPS30;68933;49.726;9.226;2023-09-19T01:26:05;1.6;;1.6;1.5;;;;;;
79466;SPS30;68933;49.726;9.226;2023-09-19T01:28:20;1.6;;1.6;1.5;;;;;;
79466;SPS30;68933;49.726;9.226;2023-09-19T01:30:32;1.6;;1.6;1.5;;;;;;
79466;SPS30;68933;49.726;9.226;2023-09-19T01:32:43;1.8;;1.8;1.8;;;;;;
79466;SPS30;68933;49.726;9.226;2023-09-19T01:34:56;1.8;;1.8;1.8;;;;;;
79466;SPS30;68933;49.726;9.226;2023-09-19T01:37:09;1.5;;1.5;1.4;;;;;;
79466;SPS30;68933;49.726;9.226;2023-09-19T01:39:22;1.5;;1.5;1.4;;;;;;
79466;SPS30;68933;49.726;9.226;2023-09-19T01:41:41;1.8;;1.8;1.7;;;;;;
79466;SPS30;68933;49.726;9.226;2023-09-19T01:43:48;1.8;;1.8;1.7;;;;;;
79466;SPS30;68933;49.726;9.226;2023-09-19T01:46:04;1.8;;1.8;1.7;;;;;;
79466;SPS30;68933;49.726;9.226;2023-09-19T01:48:17;1.3;;1.3;1.2;;;;;;
79466;SPS30;68933;49.726;9.226;2023-09-19T01:50:29;1.3;;1.3;1.2;;;;;;
79466;SPS30;68933;49.726;9.226;2023-09-19T01:52:42;1.6;;1.6;1.5;;;;;;
79466;SPS30;68933;49.726;9.226;2023-09-19T01:54:57;1.6;;1.6;1.5;;;;;;
79466;SPS30;68933;49.726;9.226;2023-09-19T01:57:08;1.6;;1.6;1.5;;;;;;
79466;SPS30;68933;49.726;9.226;2023-09-19T01:59:21;1.6;;1.6;1.5;;;;;;
79466;SPS30;68933;49.726;9.226;2023-09-19T02:01:33;1.7;;1.7;1.7;;;;;;
79466;SPS30;68933;49.726;9.226;2023-09-19T02:03:45;1.7;;1.7;1.7;;;;;;
79466;SPS30;68933;49.726;9.226;2023-09-19T02:05:58;1.7;;1.7;1.7;;;;;;
79466;SPS30;68933;49.726;9.226;2023-09-19T02:08:11;1.5;;1.5;1.4;;;;;;
79466;SPS30;68933;49.726;9.226;2023-09-19T02:10:24;1.5;;1.5;1.4;;;;;;
79466;SPS30;68933;49.726;9.226;2023-09-19T02:12:37;1.6;;1.6;1.5;;;;;;
79466;SPS30;68933;49.726;9.226;2023-09-19T02:14:50;1.6;;1.6;1.5;;;;;;
79466;SPS30;68933;49.726;9.226;2023-09-19T02:17:03;1.6;;1.6;1.5;;;;;;
79466;SPS30;68933;49.726;9.226;2023-09-19T02:19:16;1.6;;1.6;1.5;;;;;;
79466;SPS30;68933;49.726;9.226;2023-09-19T02:21:29;1.7;;1.7;1.6;;;;;;
79466;SPS30;68933;49.726;9.226;2023-09-19T02:23:42;1.7;;1.7;1.6;;;;;;
79466;SPS30;68933;49.726;9.226;2023-09-19T02:25:55;3.6;;3.6;3.4;;;;;;
79466;SPS30;68933;49.726;9.226;2023-09-19T02:28:08;3.6;;3.6;3.4;;;;;;
79466;SPS30;68933;49.726;9.226;2023-09-19T02:30:21;2.6;;2.6;2.5;;;;;;
79466;SPS30;68933;49.726;9.226;2023-09-19T02:32:34;2.6;;2.6;2.5;;;;;;
79466;SPS30;68933;49.726;9.226;2023-09-19T02:34:47;2.6;;2.6;2.5;;;;;;
79466;SPS30;68933;49.726;9.226;2023-09-19T02:37:00;1.8;;1.8;1.7;;;;;;
79466;SPS30;68933;49.726;9.226;2023-09-19T02:39:13;1.8;;1.8;1.7;;;;;;
79466;SPS30;68933;49.726;9.226;2023-09-19T02:41:26;1.9;;1.9;1.8;;;;;;
79466;SPS30;68933;49.726;9.226;2023-09-19T02:43:39;1.9;;1.9;1.8;;;;;;
79466;SPS30;68933;49.726;9.226;2023-09-19T02:45:52;2.2;;2.2;2.1;;;;;;
79466;SPS30;68933;49.726;9.226;2023-09-19T02:48:05;2.2;;2.2;2.1;;;;;;
79466;SPS30;68933;49.726;9.226;2023-09-19T02:50:18;2.5;;2.5;2.3;;;;;;
79466;SPS30;68933;49.726;9.226;2023-09-19T02:52:31;2.5;;2.5;2.3;;;;;;
79466;SPS30;68933;49.726;9.226;2023-09-19T02:54:44;2.5;;2.5;2.3;;;;;;
79466;SPS30;68933;49.726;9.226;2023-09-19T02:56:57;2.1;;2.1;2;;;;;;
79466;SPS30;68933;49.726;9.226;2023-09-19T02:59:10;2.9;;2.9;2.8;;;;;;
79466;SPS30;68933;49.726;9.226;2023-09-19T03:01:23;2.9;;2.9;2.8;;;;;;
79466;SPS30;68933;49.726;9.226;2023-09-19T03:03:36;2.9;;2.9;2.8;;;;;;
79466;SPS30;68933;49.726;9.226;2023-09-19T03:05:49;2.5;;2.5;2.4;;;;;;
79466;SPS30;68933;49.726;9.226;2023-09-19T03:08:02;2.5;;2.5;2.4;;;;;;
79466;SPS30;68933;49.726;9.226;2023-09-19T03:10:15;2.9;;2.9;2.7;;;;;;
79466;SPS30;68933;49.726;9.226;2023-09-19T03:12:28;2.9;;2.9;2.7;;;;;;
79466;SPS30;68933;49.726;9.226;2023-09-19T03:14:41;2.9;;2.9;2.7;;;;;;
79466;SPS30;68933;49.726;9.226;2023-09-19T03:16:54;2.1;;2.1;2;;;;;;
79466;SPS30;68933;49.726;9.226;2023-09-19T03:19:07;2.1;;2.1;2;;;;;;
79466;SPS30;68933;49.726;9.226;2023-09-19T03:21:20;1.8;;1.8;1.7;;;;;;
79466;SPS30;68933;49.726;9.226;2023-09-19T03:23:33;1.8;;1.8;1.7;;;;;;
79466;SPS30;68933;49.726;9.226;2023-09-19T03:25:46;1.8;;1.8;1.7;;;;;;
79466;SPS30;68933;49.726;9.226;2023-09-19T03:27:59;1.8;;1.8;1.7;;;;;;
79466;SPS30;68933;49.726;9.226;2023-09-19T03:30:12;1.8;;1.8;1.7;;;;;;
79466;SPS30;68933;49.726;9.226;2023-09-19T03:32:25;1.7;;1.7;1.6;;;;;;
79466;SPS30;68933;49.726;9.226;2023-09-19T03:34:38;1.7;;1.7;1.6;;;;;;
79466;SPS30;68933;49.726;9.226;2023-09-19T03:36:51;1.7;;1.7;1.7;;;;;;
79466;SPS30;68933;49.726;9.226;2023-09-19T03:39:04;1.7;;1.7;1.7;;;;;;
79466;SPS30;68933;49.726;9.226;2023-09-19T03:41:17;1.7;;1.7;1.7;;;;;;
79466;SPS30;68933;49.726;9.226;2023-09-19T03:43:31;1.6;;1.6;1.5;;;;;;
79466;SPS30;68933;49.726;9.226;2023-09-19T03:45:43;1.6;;1.6;1.5;;;;;;
79466;SPS30;68933;49.726;9.226;2023-09-19T03:47:56;1.3;;1.3;1.2;;;;;;
79466;SPS30;68933;49.726;9.226;2023-09-19T03:50:09;1.3;;1.3;1.2;;;;;;
79466;SPS30;68933;49.726;9.226;2023-09-19T03:52:22;1.3;;1.3;1.2;;;;;;
79466;SPS30;68933;49.726;9.226;2023-09-19T03:54:35;1.8;;1.8;1.7;;;;;;
79466;SPS30;68933;49.726;9.226;2023-09-19T03:56:48;1.8;;1.8;1.7;;;;;;
79466;SPS30;68933;49.726;9.226;2023-09-19T03:59:01;1.8;;1.8;1.7;;;;;;
79466;SPS30;68933;49.726;9.226;2023-09-19T04:01:14;1.8;;1.8;1.7;;;;;;
79466;SPS30;68933;49.726;9.226;2023-09-19T04:03:27;2;;2;1.9;;;;;;
79466;SPS30;68933;49.726;9.226;2023-09-19T04:05:40;2;;2;1.9;;;;;;
79466;SPS30;68933;49.726;9.226;2023-09-19T04:07:53;2;;2;1.9;;;;;;
79466;SPS30;68933;49.726;9.226;2023-09-19T04:10:06;1.6;;1.6;1.5;;;;;;
79466;SPS30;68933;49.726;9.226;2023-09-19T04:12:19;1.6;;1.6;1.5;;;;;;
79466;SPS30;68933;49.726;9.226;2023-09-19T04:14:32;1.6;;1.6;1.5;;;;;;
79466;SPS30;68933;49.726;9.226;2023-09-19T04:16:45;1.6;;1.6;1.5;;;;;;
79466;SPS30;68933;49.726;9.226;2023-09-19T04:18:58;1.6;;1.6;1.5;;;;;;
79466;SPS30;68933;49.726;9.226;2023-09-19T04:21:11;1.8;;1.8;1.7;;;;;;
79466;SPS30;68933;49.726;9.226;2023-09-19T04:23:24;1.8;;1.8;1.7;;;;;;
79466;SPS30;68933;49.726;9.226;2023-09-19T04:25:37;1.8;;1.8;1.7;;;;;;
79466;SPS30;68933;49.726;9.226;2023-09-19T04:27:50;1.8;;1.8;1.7;;;;;;
79466;SPS30;68933;49.726;9.226;2023-09-19T04:30:04;1.4;;1.4;1.3;;;;;;
79466;SPS30;68933;49.726;9.226;2023-09-19T04:32:16;1.4;;1.4;1.3;;;;;;
79466;SPS30;68933;49.726;9.226;2023-09-19T04:34:29;1.6;;1.6;1.6;;;;;;
79466;SPS30;68933;49.726;9.226;2023-09-19T04:36:42;1.6;;1.6;1.6;;;;;;
79466;SPS30;68933;49.726;9.226;2023-09-19T04:38:55;1.6;;1.6;1.6;;;;;;
79466;SPS30;68933;49.726;9.226;2023-09-19T04:41:08;1.3;;1.3;1.3;;;;;;
79466;SPS30;68933;49.726;9.226;2023-09-19T04:43:21;1.3;;1.3;1.3;;;;;;
79466;SPS30;68933;49.726;9.226;2023-09-19T04:45:34;2.5;;2.5;2.4;;;;;;
79466;SPS30;68933;49.726;9.226;2023-09-19T04:47:47;2.5;;2.5;2.4;;;;;;
79466;SPS30;68933;49.726;9.226;2023-09-19T04:50:00;2.2;;2.2;2.1;;;;;;
79466;SPS30;68933;49.726;9.226;2023-09-19T04:52:13;2.2;;2.2;2.1;;;;;;
79466;SPS30;68933;49.726;9.226;2023-09-19T04:54:26;2.2;;2.2;2.1;;;;;;
79466;SPS30;68933;49.726;9.226;2023-09-19T04:56:39;2.2;;2.2;2.1;;;;;;
79466;SPS30;68933;49.726;9.226;2023-09-19T04:58:52;2.2;;2.2;2.1;;;;;;
79466;SPS30;68933;49.726;9.226;2023-09-19T05:01:05;2;;2;1.9;;;;;;
79466;SPS30;68933;49.726;9.226;2023-09-19T05:03:18;2;;2;1.9;;;;;;
79466;SPS30;68933;49.726;9.226;2023-09-19T05:05:31;2;;2;1.9;;;;;;
79466;SPS30;68933;49.726;9.226;2023-09-19T05:07:44;2;;2;1.9;;;;;;
79466;SPS30;68933;49.726;9.226;2023-09-19T05:09:57;1.9;;1.9;1.8;;;;;;
79466;SPS30;68933;49.726;9.226;2023-09-19T05:12:10;1.9;;1.9;1.8;;;;;;
79466;SPS30;68933;49.726;9.226;2023-09-19T05:14:23;1.9;;1.9;1.8;;;;;;
79466;SPS30;68933;49.726;9.226;2023-09-19T05:16:36;2;;2;1.9;;;;;;
79466;SPS30;68933;49.726;9.226;2023-09-19T05:18:49;2;;2;1.9;;;;;;
79466;SPS30;68933;49.726;9.226;2023-09-19T05:21:02;2.5;;2.5;2.4;;;;;;
79466;SPS30;68933;49.726;9.226;2023-09-19T05:23:15;2.5;;2.5;2.4;;;;;;
79466;SPS30;68933;49.726;9.226;2023-09-19T05:25:28;2.3;;2.3;2.2;;;;;;
79466;SPS30;68933;49.726;9.226;2023-09-19T05:27:41;2.3;;2.3;2.2;;;;;;
79466;SPS30;68933;49.726;9.226;2023-09-19T05:29:54;3.1;;3.1;3;;;;;;
79466;SPS30;68933;49.726;9.226;2023-09-19T05:32:07;3.1;;3.1;3;;;;;;
79466;SPS30;68933;49.726;9.226;2023-09-19T05:34:20;3.1;;3.1;3;;;;;;
79466;SPS30;68933;49.726;9.226;2023-09-19T05:36:33;2.1;;2.1;2;;;;;;
79466;SPS30;68933;49.726;9.226;2023-09-19T05:38:46;2.1;;2.1;2;;;;;;
79466;SPS30;68933;49.726;9.226;2023-09-19T05:40:59;3;;3;2.9;;;;;;
79466;SPS30;68933;49.726;9.226;2023-09-19T05:43:13;3;;3;2.9;;;;;;
79466;SPS30;68933;49.726;9.226;2023-09-19T05:45:25;2.1;;2.1;2;;;;;;
79466;SPS30;68933;49.726;9.226;2023-09-19T05:47:38;2.1;;2.1;2;;;;;;
79466;SPS30;68933;49.726;9.226;2023-09-19T05:49:51;2.3;;2.3;2.2;;;;;;
79466;SPS30;68933;49.726;9.226;2023-09-19T05:52:04;2.3;;2.3;2.2;;;;;;
79466;SPS30;68933;49.726;9.226;2023-09-19T05:54:17;2.8;;2.8;2.7;;;;;;
79466;SPS30;68933;49.726;9.226;2023-09-19T05:56:30;2.8;;2.8;2.7;;;;;;
79466;SPS30;68933;49.726;9.226;2023-09-19T05:58:43;2.8;;2.8;2.6;;;;;;
79466;SPS30;68933;49.726;9.226;2023-09-19T06:00:56;2.8;;2.8;2.6;;;;;;
79466;SPS30;68933;49.726;9.226;2023-09-19T06:03:09;2.8;;2.8;2.6;;;;;;
79466;SPS30;68933;49.726;9.226;2023-09-19T06:05:22;3.4;;3.4;3.2;;;;;;
79466;SPS30;68933;49.726;9.226;2023-09-19T06:07:35;3.4;;3.4;3.2;;;;;;
79466;SPS30;68933;49.726;9.226;2023-09-19T06:09:48;3.8;;3.8;3.6;;;;;;
79466;SPS30;68933;49.726;9.226;2023-09-19T06:12:01;3.8;;3.8;3.6;;;;;;
79466;SPS30;68933;49.726;9.226;2023-09-19T06:14:14;3.8;;3.8;3.6;;;;;;
79466;SPS30;68933;49.726;9.226;2023-09-19T06:16:27;4;;4;3.8;;;;;;
79466;SPS30;68933;49.726;9.226;2023-09-19T06:18:40;4;;4;3.8;;;;;;
79466;SPS30;68933;49.726;9.226;2023-09-19T06:20:53;4.2;;4.2;4.1;;;;;;
79466;SPS30;68933;49.726;9.226;2023-09-19T06:23:06;4.2;;4.2;4.1;;;;;;
79466;SPS30;68933;49.726;9.226;2023-09-19T06:25:19;4.2;;4.2;4.1;;;;;;
79466;SPS30;68933;49.726;9.226;2023-09-19T06:27:32;4.2;;4.2;4;;;;;;
79466;SPS30;68933;49.726;9.226;2023-09-19T06:29:45;4.2;;4.2;4;;;;;;
79466;SPS30;68933;49.726;9.226;2023-09-19T06:31:58;4.5;;4.5;4.3;;;;;;
79466;SPS30;68933;49.726;9.226;2023-09-19T06:34:11;4.5;;4.5;4.3;;;;;;
79466;SPS30;68933;49.726;9.226;2023-09-19T06:36:24;4.5;;4.5;4.3;;;;;;
79466;SPS30;68933;49.726;9.226;2023-09-19T06:38:37;3.8;;3.8;3.6;;;;;;
79466;SPS30;68933;49.726;9.226;2023-09-19T06:40:50;3.8;;3.8;3.6;;;;;;
79466;SPS30;68933;49.726;9.226;2023-09-19T06:43:03;3.4;;3.4;3.2;;;;;;
79466;SPS30;68933;49.726;9.226;2023-09-19T06:45:16;3.4;;3.4;3.2;;;;;;
79466;SPS30;68933;49.726;9.226;2023-09-19T06:47:29;3;;3;2.8;;;;;;
79466;SPS30;68933;49.726;9.226;2023-09-19T06:49:42;3;;3;2.8;;;;;;
79466;SPS30;68933;49.726;9.226;2023-09-19T06:51:55;3;;3;2.8;;;;;;
79466;SPS30;68933;49.726;9.226;2023-09-19T06:54:08;3.2;;3.2;3;;;;;;
79466;SPS30;68933;49.726;9.226;2023-09-19T06:56:21;3.2;;3.2;3;;;;;;
79466;SPS30;68933;49.726;9.226;2023-09-19T06:58:34;2.9;;2.9;2.8;;;;;;
79466;SPS30;68933;49.726;9.226;2023-09-19T07:00:47;2.9;;2.9;2.8;;;;;;
79466;SPS30;68933;49.726;9.226;2023-09-19T07:03:01;2.9;;2.9;2.8;;;;;;
79466;SPS30;68933;49.726;9.226;2023-09-19T07:05:13;2.9;;2.9;2.8;;;;;;
79466;SPS30;68933;49.726;9.226;2023-09-19T07:07:26;2.9;;2.9;2.8;;;;;;
79466;SPS30;68933;49.726;9.226;2023-09-19T07:09:39;3.4;;3.4;3.2;;;;;;
79466;SPS30;68933;49.726;9.226;2023-09-19T07:11:52;3.4;;3.4;3.2;;;;;;
79466;SPS30;68933;49.726;9.226;2023-09-19T07:14:05;3.2;;3.2;3.1;;;;;;
79466;SPS30;68933;49.726;9.226;2023-09-19T07:16:18;3.2;;3.2;3.1;;;;;;
79466;SPS30;68933;49.726;9.226;2023-09-19T07:18:31;3.1;;3.1;2.9;;;;;;
79466;SPS30;68933;49.726;9.226;2023-09-19T07:20:44;3.1;;3.1;2.9;;;;;;
79466;SPS30;68933;49.726;9.226;2023-09-19T07:22:57;3.1;;3.1;2.9;;;;;;
79466;SPS30;68933;49.726;9.226;2023-09-19T07:25:10;3.3;;3.3;3.1;;;;;;
79466;SPS30;68933;49.726;9.226;2023-09-19T07:27:23;3.3;;3.3;3.1;;;;;;
79466;SPS30;68933;49.726;9.226;2023-09-19T07:29:36;2.7;;2.7;2.6;;;;;;
79466;SPS30;68933;49.726;9.226;2023-09-19T07:31:49;2.7;;2.7;2.6;;;;;;
79466;SPS30;68933;49.726;9.226;2023-09-19T07:34:02;2.6;;2.6;2.4;;;;;;
79466;SPS30;68933;49.726;9.226;2023-09-19T07:36:16;2.6;;2.6;2.4;;;;;;
79466;SPS30;68933;49.726;9.226;2023-09-19T07:38:28;2.6;;2.6;2.4;;;;;;
79466;SPS30;68933;49.726;9.226;2023-09-19T07:40:41;3.8;;3.8;3.6;;;;;;
79466;SPS30;68933;49.726;9.226;2023-09-19T07:42:54;3.8;;3.8;3.6;;;;;;
79466;SPS30;68933;49.726;9.226;2023-09-19T07:45:07;3.3;;3.3;3.2;;;;;;
79466;SPS30;68933;49.726;9.226;2023-09-19T07:47:20;3.3;;3.3;3.2;;;;;;
79466;SPS30;68933;49.726;9.226;2023-09-19T07:49:33;2.8;;2.8;2.7;;;;;;
79466;SPS30;68933;49.726;9.226;2023-09-19T07:51:46;2.8;;2.8;2.7;;;;;;
79466;SPS30;68933;49.726;9.226;2023-09-19T07:53:59;2.8;;2.8;2.7;;;;;;
79466;SPS30;68933;49.726;9.226;2023-09-19T07:56:12;3.1;;3.1;2.9;;;;;;
79466;SPS30;68933;49.726;9.226;2023-09-19T07:58:25;3.1;;3.1;2.9;;;;;;
79466;SPS30;68933;49.726;9.226;2023-09-19T08:00:38;2.5;;2.5;2.4;;;;;;
79466;SPS30;68933;49.726;9.226;2023-09-19T08:02:51;2.5;;2.5;2.4;;;;;;
79466;SPS30;68933;49.726;9.226;2023-09-19T08:05:04;2.3;;2.3;2.2;;;;;;
79466;SPS30;68933;49.726;9.226;2023-09-19T08:07:17;2.3;;2.3;2.2;;;;;;
79466;SPS30;68933;49.726;9.226;2023-09-19T08:09:30;2.9;;2.9;2.7;;;;;;
79466;SPS30;68933;49.726;9.226;2023-09-19T08:11:43;2.9;;2.9;2.7;;;;;;
79466;SPS30;68933;49.726;9.226;2023-09-19T08:13:56;2.9;;2.9;2.7;;;;;;
79466;SPS30;68933;49.726;9.226;2023-09-19T08:16:09;2.8;;2.8;2.7;;;;;;
79466;SPS30;68933;49.726;9.226;2023-09-19T08:18:22;2.8;;2.8;2.7;;;;;;
79466;SPS30;68933;49.726;9.226;2023-09-19T08:20:35;2;;2;1.9;;;;;;
79466;SPS30;68933;49.726;9.226;2023-09-19T08:22:48;2;;2;1.9;;;;;;
79466;SPS30;68933;49.726;9.226;2023-09-19T08:25:01;2.2;;2.2;2.1;;;;;;
79466;SPS30;68933;49.726;9.226;2023-09-19T08:27:14;2.2;;2.2;2.1;;;;;;
79466;SPS30;68933;49.726;9.226;2023-09-19T08:29:27;2.2;;2.2;2.1;;;;;;
79466;SPS30;68933;49.726;9.226;2023-09-19T08:31:40;2.2;;2.2;2.1;;;;;;
79466;SPS30;68933;49.726;9.226;2023-09-19T08:33:53;2.2;;2.2;2.1;;;;;;
79466;SPS30;68933;49.726;9.226;2023-09-19T08:36:06;2.2;;2.2;2.1;;;;;;
79466;SPS30;68933;49.726;9.226;2023-09-19T08:38:19;2.2;;2.2;2.1;;;;;;
79466;SPS30;68933;49.726;9.226;2023-09-19T08:40:32;4.6;;4.6;4.4;;;;;;
79466;SPS30;68933;49.726;9.226;2023-09-19T08:42:47;4.6;;4.6;4.4;;;;;;
79466;SPS30;68933;49.726;9.226;2023-09-19T08:44:58;3.1;;3.1;3;;;;;;
79466;SPS30;68933;49.726;9.226;2023-09-19T08:47:15;3.1;;3.1;3;;;;;;
79466;SPS30;68933;49.726;9.226;2023-09-19T08:49:28;2.8;;2.8;2.7;;;;;;
79466;SPS30;68933;49.726;9.226;2023-09-19T08:51:39;2.8;;2.8;2.7;;;;;;
79466;SPS30;68933;49.726;9.226;2023-09-19T08:53:51;2.7;;2.7;2.6;;;;;;
79466;SPS30;68933;49.726;9.226;2023-09-19T08:56:03;2.7;;2.7;2.6;;;;;;
79466;SPS30;68933;49.726;9.226;2023-09-19T08:58:16;2.7;;2.7;2.6;;;;;;
79466;SPS30;68933;49.726;9.226;2023-09-19T09:00:29;2.7;;2.7;2.6;;;;;;
79466;SPS30;68933;49.726;9.226;2023-09-19T09:02:42;2.4;;2.4;2.3;;;;;;
79466;SPS30;68933;49.726;9.226;2023-09-19T09:04:55;2.4;;2.4;2.3;;;;;;
79466;SPS30;68933;49.726;9.226;2023-09-19T09:07:10;2.4;;2.4;2.3;;;;;;
79466;SPS30;68933;49.726;9.226;2023-09-19T09:09:21;2.2;;2.2;2.1;;;;;;
79466;SPS30;68933;49.726;9.226;2023-09-19T09:11:34;2.2;;2.2;2.1;;;;;;
79466;SPS30;68933;49.726;9.226;2023-09-19T09:13:47;3.1;;3.1;2.9;;;;;;
79466;SPS30;68933;49.726;9.226;2023-09-19T09:16:00;3.1;;3.1;2.9;;;;;;
79466;SPS30;68933;49.726;9.226;2023-09-19T09:18:13;3.1;;3.1;2.9;;;;;;
79466;SPS30;68933;49.726;9.226;2023-09-19T09:20:26;3;;3;2.9;;;;;;
79466;SPS30;68933;49.726;9.226;2023-09-19T09:22:41;3;;3;2.9;;;;;;
79466;SPS30;68933;49.726;9.226;2023-09-19T09:24:52;2.4;;2.4;2.3;;;;;;
79466;SPS30;68933;49.726;9.226;2023-09-19T09:27:06;2.4;;2.4;2.3;;;;;;
79466;SPS30;68933;49.726;9.226;2023-09-19T09:29:20;2.4;;2.4;2.3;;;;;;
79466;SPS30;68933;49.726;9.226;2023-09-19T09:31:31;2.8;;2.8;2.6;;;;;;
79466;SPS30;68933;49.726;9.226;2023-09-19T09:33:51;2.8;;2.8;2.6;;;;;;
79466;SPS30;68933;49.726;9.226;2023-09-19T09:35:58;2.8;;2.8;2.7;;;;;;
79466;SPS30;68933;49.726;9.226;2023-09-19T09:38:10;2.8;;2.8;2.7;;;;;;
79466;SPS30;68933;49.726;9.226;2023-09-19T09:40:23;2.8;;2.8;2.7;;;;;;
79466;SPS30;68933;49.726;9.226;2023-09-19T09:42:36;3.4;;3.4;3.3;;;;;;
79466;SPS30;68933;49.726;9.226;2023-09-19T09:44:50;3.4;;3.4;3.3;;;;;;
79466;SPS30;68933;49.726;9.226;2023-09-19T09:47:02;2.8;;2.8;2.7;;;;;;
79466;SPS30;68933;49.726;9.226;2023-09-19T09:49:21;2.8;;2.8;2.7;;;;;;
79466;SPS30;68933;49.726;9.226;2023-09-19T09:51:29;2.8;;2.8;2.7;;;;;;
79466;SPS30;68933;49.726;9.226;2023-09-19T09:53:41;3.2;;3.2;3.1;;;;;;
79466;SPS30;68933;49.726;9.226;2023-09-19T09:55:58;3.2;;3.2;3.1;;;;;;
79466;SPS30;68933;49.726;9.226;2023-09-19T09:58:23;2.7;;2.7;2.5;;;;;;
79466;SPS30;68933;49.726;9.226;2023-09-19T10:00:20;2.7;;2.7;2.5;;;;;;
79466;SPS30;68933;49.726;9.226;2023-09-19T10:02:35;3.8;;3.8;3.7;;;;;;
79466;SPS30;68933;49.726;9.226;2023-09-19T10:04:46;3.8;;3.8;3.7;;;;;;
79466;SPS30;68933;49.726;9.226;2023-09-19T10:06:59;3.8;;3.8;3.7;;;;;;
79466;SPS30;68933;49.726;9.226;2023-09-19T10:09:12;2.6;;2.6;2.4;;;;;;
79466;SPS30;68933;49.726;9.226;2023-09-19T10:11:25;2.6;;2.6;2.4;;;;;;
79466;SPS30;68933;49.726;9.226;2023-09-19T10:13:38;2.8;;2.8;2.7;;;;;;
79466;SPS30;68933;49.726;9.226;2023-09-19T10:15:51;2.8;;2.8;2.7;;;;;;
79466;SPS30;68933;49.726;9.226;2023-09-19T10:18:04;2.8;;2.8;2.7;;;;;;
79466;SPS30;68933;49.726;9.226;2023-09-19T10:20:17;2.8;;2.8;2.7;;;;;;
79466;SPS30;68933;49.726;9.226;2023-09-19T10:22:30;2.8;;2.8;2.7;;;;;;
79466;SPS30;68933;49.726;9.226;2023-09-19T10:24:43;3.2;;3.2;3.1;;;;;;
79466;SPS30;68933;49.726;9.226;2023-09-19T10:26:56;3.2;;3.2;3.1;;;;;;
79466;SPS30;68933;49.726;9.226;2023-09-19T10:29:09;2.8;;2.8;2.7;;;;;;
79466;SPS30;68933;49.726;9.226;2023-09-19T10:31:22;2.8;;2.8;2.7;;;;;;
79466;SPS30;68933;49.726;9.226;2023-09-19T10:33:36;2.8;;2.8;2.7;;;;;;
79466;SPS30;68933;49.726;9.226;2023-09-19T10:35:49;3.1;;3.1;3;;;;;;
79466;SPS30;68933;49.726;9.226;2023-09-19T10:38:01;3.1;;3.1;3;;;;;;
79466;SPS30;68933;49.726;9.226;2023-09-19T10:40:14;3.2;;3.2;3;;;;;;
79466;SPS30;68933;49.726;9.226;2023-09-19T10:42:27;3.2;;3.2;3;;;;;;
79466;SPS30;68933;49.726;9.226;2023-09-19T10:44:40;2.9;;2.9;2.8;;;;;;
79466;SPS30;68933;49.726;9.226;2023-09-19T10:46:53;2.9;;2.9;2.8;;;;;;
79466;SPS30;68933;49.726;9.226;2023-09-19T10:49:06;2.9;;2.9;2.8;;;;;;
79466;SPS30;68933;49.726;9.226;2023-09-19T10:51:20;3.8;;3.8;3.7;;;;;;
79466;SPS30;68933;49.726;9.226;2023-09-19T10:53:39;3.8;;3.8;3.7;;;;;;
79466;SPS30;68933;49.726;9.226;2023-09-19T10:55:49;4.2;;4.2;4;;;;;;
79466;SPS30;68933;49.726;9.226;2023-09-19T10:57:58;4.2;;4.2;4;;;;;;
79466;SPS30;68933;49.726;9.226;2023-09-19T11:00:11;2.5;;2.5;2.4;;;;;;
79466;SPS30;68933;49.726;9.226;2023-09-19T11:02:24;2.5;;2.5;2.4;;;;;;
79466;SPS30;68933;49.726;9.226;2023-09-19T11:04:37;3.2;;3.2;3;;;;;;
79466;SPS30;68933;49.726;9.226;2023-09-19T11:07:06;3.2;;3.2;3;;;;;;
79466;SPS30;68933;49.726;9.226;2023-09-19T11:09:03;3.2;;3.2;3;;;;;;
79466;SPS30;68933;49.726;9.226;2023-09-19T11:11:38;2.8;;2.8;2.7;;;;;;
79466;SPS30;68933;49.726;9.226;2023-09-19T11:13:29;2.8;;2.8;2.7;;;;;;
79466;SPS30;68933;49.726;9.226;2023-09-19T11:17:55;2.9;;2.9;2.8;;;;;;
79466;SPS30;68933;49.726;9.226;2023-09-19T11:20:20;3.8;;3.8;3.6;;;;;;
79466;SPS30;68933;49.726;9.226;2023-09-19T11:22:21;3.8;;3.8;3.6;;;;;;
79466;SPS30;68933;49.726;9.226;2023-09-19T11:24:34;3.8;;3.8;3.6;;;;;;
79466;SPS30;68933;49.726;9.226;2023-09-19T11:26:48;3.2;;3.2;3;;;;;;
79466;SPS30;68933;49.726;9.226;2023-09-19T11:29:23;3.2;;3.2;3;;;;;;
79466;SPS30;68933;49.726;9.226;2023-09-19T11:31:45;2.8;;2.8;2.7;;;;;;
79466;SPS30;68933;49.726;9.226;2023-09-19T11:33:27;2.8;;2.8;2.7;;;;;;
79466;SPS30;68933;49.726;9.226;2023-09-19T11:35:58;2.4;;2.4;2.3;;;;;;
79466;SPS30;68933;49.726;9.226;2023-09-19T11:37:59;2.4;;2.4;2.3;;;;;;
79466;SPS30;68933;49.726;9.226;2023-09-19T11:40:05;2.8;;2.8;2.7;;;;;;
79466;SPS30;68933;49.726;9.226;2023-09-19T11:42:40;2.8;;2.8;2.7;;;;;;
79466;SPS30;68933;49.726;9.226;2023-09-19T11:44:32;2.8;;2.8;2.7;;;;;;
79466;SPS30;68933;49.726;9.226;2023-09-19T11:46:51;2.3;;2.3;2.2;;;;;;
79466;SPS30;68933;49.726;9.226;2023-09-19T11:49:04;2.3;;2.3;2.2;;;;;;
79466;SPS30;68933;49.726;9.226;2023-09-19T11:51:11;2.3;;2.3;2.1;;;;;;
79466;SPS30;68933;49.726;9.226;2023-09-19T11:53:23;2.3;;2.3;2.1;;;;;;
79466;SPS30;68933;49.726;9.226;2023-09-19T11:55:36;2.4;;2.4;2.3;;;;;;
79466;SPS30;68933;49.726;9.226;2023-09-19T11:57:49;2.4;;2.4;2.3;;;;;;
79466;SPS30;68933;49.726;9.226;2023-09-19T12:00:02;2.5;;2.5;2.4;;;;;;
79466;SPS30;68933;49.726;9.226;2023-09-19T12:02:17;2.5;;2.5;2.4;;;;;;
79466;SPS30;68933;49.726;9.226;2023-09-19T12:04:33;1.9;;1.9;1.8;;;;;;
79466;SPS30;68933;49.726;9.226;2023-09-19T12:06:41;1.9;;1.9;1.8;;;;;;
79466;SPS30;68933;49.726;9.226;2023-09-19T12:08:54;1.9;;1.9;1.8;;;;;;
79466;SPS30;68933;49.726;9.226;2023-09-19T12:11:11;1.9;;1.9;1.9;;;;;;
79466;SPS30;68933;49.726;9.226;2023-09-19T12:13:20;1.9;;1.9;1.9;;;;;;
79466;SPS30;68933;49.726;9.226;2023-09-19T12:15:33;1.5;;1.5;1.4;;;;;;
79466;SPS30;68933;49.726;9.226;2023-09-19T12:17:46;1.5;;1.5;1.4;;;;;;
79466;SPS30;68933;49.726;9.226;2023-09-19T12:19:59;1.9;;1.9;1.9;;;;;;
79466;SPS30;68933;49.726;9.226;2023-09-19T12:22:12;1.9;;1.9;1.9;;;;;;
79466;SPS30;68933;49.726;9.226;2023-09-19T12:24:26;1.8;;1.8;1.7;;;;;;
79466;SPS30;68933;49.726;9.226;2023-09-19T12:26:39;1.8;;1.8;1.7;;;;;;
79466;SPS30;68933;49.726;9.226;2023-09-19T12:28:51;1.8;;1.8;1.7;;;;;;
79466;SPS30;68933;49.726;9.226;2023-09-19T12:31:06;1.6;;1.6;1.5;;;;;;
79466;SPS30;68933;49.726;9.226;2023-09-19T12:33:17;1.6;;1.6;1.5;;;;;;
79466;SPS30;68933;49.726;9.226;2023-09-19T12:35:31;2.1;;2.1;2;;;;;;
79466;SPS30;68933;49.726;9.226;2023-09-19T12:37:43;2.1;;2.1;2;;;;;;
79466;SPS30;68933;49.726;9.226;2023-09-19T12:40:03;1.6;;1.6;1.6;;;;;;
79466;SPS30;68933;49.726;9.226;2023-09-19T12:42:10;1.6;;1.6;1.6;;;;;;
79466;SPS30;68933;49.726;9.226;2023-09-19T12:44:22;1.7;;1.7;1.6;;;;;;